Terminal Aerodrome Forecast
Issued by NWS

Home | Current Version | Previous Version | Text Only | Print | Product List | Glossary On
Versions: 1 2 3 4 5 6 7 8 9 10 11 12 13 14
000
FTUS45 KPSR 211100
TAFIPL
TAF
KIPL 211138Z 2112/2212 VRB05KT P6SM SCT120 SCT200
     FM211800 18008KT P6SM VCTS SCT090CB BKN150
     FM220300 22007KT P6SM SCT100 SCT200=

USA.gov is the U.S. government's official web portal to all federal, state and local government web resources and services.